Chapleau Airport
CYLD : rendu visible

Aérodrome :











RETROUVEZ-NOUS SUR...

 
LOGIN :

S'inscrire | Disclaimer

   EN    FR    IT 

 









Légende :    VFR   VFR Marginal   IFR   IFR Intensif   IFR Très Intensif
Visi : 
Plafond : 
>= 8 km
>= 3000ft
5 à 8 km
1000 à 3000 ft
1500m à 5 km
500 à 1000 ft
800 à 1500m
200 à 500 ft
< 800m
< 200 ft
Symboles :   Orages  Brouillard  Fortes neiges  Fortes précipitations  Vent > 20 kt






- Altitude de l'aérodrome : 1470 ft
- Code IATA : YLD


CYLD - Chapleau

DERNIER METAR :
  • 162300Z 19010KT 15SM OVC014 M05/M07 A3029 RMK SC8 SLP304

METARs EXPIRÉS :
  • 162200Z 18009G15KT 15SM OVC016 M05/M07 A3030 RMK SC8 SLP310
  • 162100Z 17010KT 15SM OVC018 M05/M07 A3032 RMK SC8 SLP315

TAF TAF CYLD
Valide du 16 à 20h jusqu'au 17 à 02h UTC


161944Z 1620/1702 18008KT P6SM SCT020 BKN100
TEMPO 1620/1702 4SM -SN OVC020 RMK NXT FCST WILL BE ISSUED AT 171245Z



MET'MAP, la Météo Aéronautique d'un coup d'oeil ! - Copyright ORBIFLY Décembre 2007 - Disclaimer

ORBIFLY MET'MAP TEAM :

Programmation & Développement : Alexandra Zaïnal
Conception & Développement : Baudouin d'Aumeries
Co-Programmation & Développement : Marc-Olivier Méhu
Soutien technique & logistique : Manuel Goepfert

Contact : metmap@orbifly.com




SOURCES & CREDITS :

   NOAA       Earth
Advisory